sensor_id;sensor_type;location;lat;lon;timestamp;pressure;altitude;pressure_sealevel;temperature;humidity
37710;BME280;60223;34.854;-92.408;2023-02-20T00:00:24;100543.02;;;21.06;30.86
37710;BME280;60223;34.854;-92.408;2023-02-20T00:02:51;100537.44;;;20.85;30.97
37710;BME280;60223;34.854;-92.408;2023-02-20T00:05:17;100536.73;;;20.92;30.40
37710;BME280;60223;34.854;-92.408;2023-02-20T00:07:41;100532.95;;;19.41;32.31
37710;BME280;60223;34.854;-92.408;2023-02-20T00:10:08;100528.34;;;20.61;30.91
37710;BME280;60223;34.854;-92.408;2023-02-20T00:12:33;100529.72;;;20.06;31.31
37710;BME280;60223;34.854;-92.408;2023-02-20T00:14:59;100534.34;;;19.99;31.22
37710;BME280;60223;34.854;-92.408;2023-02-20T00:17:22;100537.24;;;21.04;30.15
37710;BME280;60223;34.854;-92.408;2023-02-20T00:19:50;100540.30;;;20.48;31.04
37710;BME280;60223;34.854;-92.408;2023-02-20T00:22:15;100530.95;;;21.17;30.33
37710;BME280;60223;34.854;-92.408;2023-02-20T00:39:15;100522.38;;;19.85;30.89
37710;BME280;60223;34.854;-92.408;2023-02-20T00:41:41;100514.00;;;20.39;30.74
37710;BME280;60223;34.854;-92.408;2023-02-20T00:44:07;100513.07;;;19.67;30.84
37710;BME280;60223;34.854;-92.408;2023-02-20T00:46:32;100507.02;;;19.77;30.75
37710;BME280;60223;34.854;-92.408;2023-02-20T00:48:58;100514.58;;;19.87;30.54
37710;BME280;60223;34.854;-92.408;2023-02-20T00:51:21;100514.29;;;20.39;29.83
37710;BME280;60223;34.854;-92.408;2023-02-20T00:53:47;100508.94;;;20.40;29.80
37710;BME280;60223;34.854;-92.408;2023-02-20T00:56:16;100513.99;;;19.94;30.05
37710;BME280;60223;34.854;-92.408;2023-02-20T00:58:41;100513.95;;;20.30;29.66
37710;BME280;60223;34.854;-92.408;2023-02-20T01:01:06;100515.31;;;20.05;30.50
37710;BME280;60223;34.854;-92.408;2023-02-20T01:03:33;100522.89;;;20.79;29.81
37710;BME280;60223;34.854;-92.408;2023-02-20T01:05:58;100517.58;;;21.37;30.43
37710;BME280;60223;34.854;-92.408;2023-02-20T01:08:23;100510.34;;;21.67;30.67
37710;BME280;60223;34.854;-92.408;2023-02-20T01:10:50;100519.08;;;21.35;31.58
37710;BME280;60223;34.854;-92.408;2023-02-20T01:13:16;100520.98;;;21.27;32.05
37710;BME280;60223;34.854;-92.408;2023-02-20T01:15:42;100515.92;;;20.87;32.91
37710;BME280;60223;34.854;-92.408;2023-02-20T01:18:07;100519.04;;;21.11;32.57
37710;BME280;60223;34.854;-92.408;2023-02-20T01:20:33;100518.90;;;20.44;33.40
37710;BME280;60223;34.854;-92.408;2023-02-20T01:22:57;100525.44;;;21.13;32.65
37710;BME280;60223;34.854;-92.408;2023-02-20T01:25:24;100525.99;;;20.72;33.14
37710;BME280;60223;34.854;-92.408;2023-02-20T01:27:49;100532.69;;;21.28;32.85
37710;BME280;60223;34.854;-92.408;2023-02-20T01:30:16;100534.10;;;21.05;32.81
37710;BME280;60223;34.854;-92.408;2023-02-20T01:32:41;100533.49;;;20.98;32.87
37710;BME280;60223;34.854;-92.408;2023-02-20T01:35:07;100530.63;;;21.23;32.64
37710;BME280;60223;34.854;-92.408;2023-02-20T01:37:33;100524.76;;;21.62;32.13
37710;BME280;60223;34.854;-92.408;2023-02-20T01:39:58;100514.49;;;22.06;31.10
37710;BME280;60223;34.854;-92.408;2023-02-20T01:42:28;100503.66;;;22.73;30.94
37710;BME280;60223;34.854;-92.408;2023-02-20T01:44:49;100507.31;;;22.31;30.94
37710;BME280;60223;34.854;-92.408;2023-02-20T01:47:18;100520.52;;;22.26;31.52
37710;BME280;60223;34.854;-92.408;2023-02-20T01:49:42;100516.17;;;21.71;32.21
37710;BME280;60223;34.854;-92.408;2023-02-20T01:52:11;100505.94;;;21.30;32.17
37710;BME280;60223;34.854;-92.408;2023-02-20T01:54:33;100496.94;;;21.58;32.11
37710;BME280;60223;34.854;-92.408;2023-02-20T01:56:59;100494.48;;;21.11;32.36
37710;BME280;60223;34.854;-92.408;2023-02-20T01:59:26;100484.66;;;21.25;32.48
37710;BME280;60223;34.854;-92.408;2023-02-20T02:01:49;100493.41;;;20.91;32.83
37710;BME280;60223;34.854;-92.408;2023-02-20T02:04:15;100492.47;;;20.64;32.91
37710;BME280;60223;34.854;-92.408;2023-02-20T02:06:45;100477.61;;;21.57;32.40
37710;BME280;60223;34.854;-92.408;2023-02-20T02:09:12;100470.07;;;21.30;32.69
37710;BME280;60223;34.854;-92.408;2023-02-20T02:11:31;100467.92;;;20.99;32.41
37710;BME280;60223;34.854;-92.408;2023-02-20T02:13:58;100474.41;;;21.56;32.04
37710;BME280;60223;34.854;-92.408;2023-02-20T02:16:30;100482.98;;;21.98;31.61
37710;BME280;60223;34.854;-92.408;2023-02-20T02:18:56;100489.40;;;22.70;30.91
37710;BME280;60223;34.854;-92.408;2023-02-20T02:26:12;100490.88;;;24.03;29.04
37710;BME280;60223;34.854;-92.408;2023-02-20T02:33:33;100494.31;;;24.08;28.42
37710;BME280;60223;34.854;-92.408;2023-02-20T02:38:20;100487.89;;;23.05;29.18
37710;BME280;60223;34.854;-92.408;2023-02-20T02:40:46;100483.70;;;23.85;28.36
37710;BME280;60223;34.854;-92.408;2023-02-20T02:43:13;100480.69;;;23.80;28.38
37710;BME280;60223;34.854;-92.408;2023-02-20T02:45:34;100484.33;;;24.07;28.11
37710;BME280;60223;34.854;-92.408;2023-02-20T02:48:01;100483.91;;;23.87;28.33
37710;BME280;60223;34.854;-92.408;2023-02-20T02:50:27;100487.67;;;24.00;27.92
37710;BME280;60223;34.854;-92.408;2023-02-20T02:52:50;100479.34;;;24.26;27.91
37710;BME280;60223;34.854;-92.408;2023-02-20T02:55:16;100481.09;;;24.30;27.69
37710;BME280;60223;34.854;-92.408;2023-02-20T02:57:40;100474.21;;;24.54;27.69
37710;BME280;60223;34.854;-92.408;2023-02-20T03:00:09;100471.46;;;23.94;27.84
37710;BME280;60223;34.854;-92.408;2023-02-20T03:02:36;100473.26;;;23.90;27.72
37710;BME280;60223;34.854;-92.408;2023-02-20T03:04:57;100468.30;;;24.40;27.92
37710;BME280;60223;34.854;-92.408;2023-02-20T03:07:23;100468.23;;;24.32;28.00
37710;BME280;60223;34.854;-92.408;2023-02-20T03:09:52;100466.06;;;24.31;28.05
37710;BME280;60223;34.854;-92.408;2023-02-20T03:12:16;100451.82;;;23.85;28.14
37710;BME280;60223;34.854;-92.408;2023-02-20T03:14:45;100458.30;;;23.89;28.22
37710;BME280;60223;34.854;-92.408;2023-02-20T03:17:12;100455.87;;;23.97;28.14
37710;BME280;60223;34.854;-92.408;2023-02-20T03:19:36;100461.34;;;23.29;28.74
37710;BME280;60223;34.854;-92.408;2023-02-20T03:21:59;100449.12;;;24.15;28.23
37710;BME280;60223;34.854;-92.408;2023-02-20T03:24:23;100455.29;;;23.78;28.45
37710;BME280;60223;34.854;-92.408;2023-02-20T03:29:17;100439.90;;;23.80;28.32
37710;BME280;60223;34.854;-92.408;2023-02-20T03:31:44;100440.85;;;24.01;28.19
37710;BME280;60223;34.854;-92.408;2023-02-20T03:34:09;100428.02;;;23.45;28.86
37710;BME280;60223;34.854;-92.408;2023-02-20T03:36:33;100425.31;;;23.76;28.42
37710;BME280;60223;34.854;-92.408;2023-02-20T03:39:00;100424.33;;;24.06;28.11
37710;BME280;60223;34.854;-92.408;2023-02-20T03:41:23;100427.99;;;23.87;28.36
37710;BME280;60223;34.854;-92.408;2023-02-20T03:43:49;100415.35;;;24.29;27.94
37710;BME280;60223;34.854;-92.408;2023-02-20T03:46:16;100413.45;;;24.45;27.93
37710;BME280;60223;34.854;-92.408;2023-02-20T03:48:43;100413.97;;;23.89;27.95
37710;BME280;60223;34.854;-92.408;2023-02-20T03:51:04;100415.34;;;24.13;28.03
37710;BME280;60223;34.854;-92.408;2023-02-20T03:53:31;100411.61;;;24.37;28.07
37710;BME280;60223;34.854;-92.408;2023-02-20T03:55:58;100414.92;;;24.12;28.30
37710;BME280;60223;34.854;-92.408;2023-02-20T03:58:23;100415.65;;;23.96;28.16
37710;BME280;60223;34.854;-92.408;2023-02-20T04:00:50;100436.12;;;23.86;28.55
37710;BME280;60223;34.854;-92.408;2023-02-20T04:03:18;100433.61;;;24.01;28.39
37710;BME280;60223;34.854;-92.408;2023-02-20T04:05:42;100435.66;;;23.95;28.31
37710;BME280;60223;34.854;-92.408;2023-02-20T04:08:07;100423.37;;;24.02;28.36
37710;BME280;60223;34.854;-92.408;2023-02-20T04:10:33;100416.14;;;23.56;29.00
37710;BME280;60223;34.854;-92.408;2023-02-20T04:12:57;100421.04;;;23.49;29.24
37710;BME280;60223;34.854;-92.408;2023-02-20T04:15:23;100412.48;;;24.03;28.67
37710;BME280;60223;34.854;-92.408;2023-02-20T04:17:50;100419.91;;;24.33;28.16
37710;BME280;60223;34.854;-92.408;2023-02-20T04:20:14;100412.76;;;23.58;29.11
37710;BME280;60223;34.854;-92.408;2023-02-20T04:22:42;100415.85;;;23.78;28.88
37710;BME280;60223;34.854;-92.408;2023-02-20T04:25:08;100431.47;;;23.65;28.75
37710;BME280;60223;34.854;-92.408;2023-02-20T04:27:30;100424.70;;;23.94;28.69
37710;BME280;60223;34.854;-92.408;2023-02-20T04:29:56;100428.19;;;23.68;28.69
37710;BME280;60223;34.854;-92.408;2023-02-20T04:32:20;100430.07;;;23.35;28.97
37710;BME280;60223;34.854;-92.408;2023-02-20T04:34:47;100419.27;;;23.48;28.81
37710;BME280;60223;34.854;-92.408;2023-02-20T04:37:15;100416.88;;;23.50;28.73
37710;BME280;60223;34.854;-92.408;2023-02-20T04:39:38;100396.51;;;23.31;29.13
37710;BME280;60223;34.854;-92.408;2023-02-20T04:42:03;100397.02;;;23.36;28.76
37710;BME280;60223;34.854;-92.408;2023-02-20T04:44:30;100398.16;;;23.43;28.67
37710;BME280;60223;34.854;-92.408;2023-02-20T04:46:54;100400.53;;;23.49;28.84
37710;BME280;60223;34.854;-92.408;2023-02-20T04:49:21;100405.14;;;23.61;28.67
37710;BME280;60223;34.854;-92.408;2023-02-20T04:51:47;100395.63;;;23.34;28.70
37710;BME280;60223;34.854;-92.408;2023-02-20T04:54:09;100400.34;;;23.40;28.87
37710;BME280;60223;34.854;-92.408;2023-02-20T04:56:38;100401.73;;;23.30;28.91
37710;BME280;60223;34.854;-92.408;2023-02-20T04:59:03;100407.59;;;23.29;28.91
37710;BME280;60223;34.854;-92.408;2023-02-20T05:01:30;100416.12;;;23.37;28.80
37710;BME280;60223;34.854;-92.408;2023-02-20T05:03:55;100419.13;;;23.43;28.66
37710;BME280;60223;34.854;-92.408;2023-02-20T05:06:17;100433.90;;;23.11;28.99
37710;BME280;60223;34.854;-92.408;2023-02-20T05:08:46;100418.70;;;23.12;28.95
37710;BME280;60223;34.854;-92.408;2023-02-20T05:11:10;100414.55;;;23.05;28.97
37710;BME280;60223;34.854;-92.408;2023-02-20T05:13:38;100406.62;;;23.03;28.79
37710;BME280;60223;34.854;-92.408;2023-02-20T05:16:03;100393.54;;;22.59;29.42
37710;BME280;60223;34.854;-92.408;2023-02-20T05:18:29;100384.25;;;22.98;28.98
37710;BME280;60223;34.854;-92.408;2023-02-20T05:20:55;100392.52;;;22.76;28.96
37710;BME280;60223;34.854;-92.408;2023-02-20T05:23:18;100397.52;;;23.14;28.79
37710;BME280;60223;34.854;-92.408;2023-02-20T05:25:46;100387.03;;;23.13;28.80
37710;BME280;60223;34.854;-92.408;2023-02-20T05:28:11;100394.57;;;22.85;29.02
37710;BME280;60223;34.854;-92.408;2023-02-20T05:30:37;100391.64;;;22.54;29.08
37710;BME280;60223;34.854;-92.408;2023-02-20T05:33:02;100386.59;;;22.90;28.93
37710;BME280;60223;34.854;-92.408;2023-02-20T05:35:28;100381.37;;;22.83;28.96
37710;BME280;60223;34.854;-92.408;2023-02-20T05:37:54;100384.95;;;22.83;28.97
37710;BME280;60223;34.854;-92.408;2023-02-20T05:40:20;100385.56;;;22.94;28.61
37710;BME280;60223;34.854;-92.408;2023-02-20T05:42:45;100383.29;;;22.74;29.01
37710;BME280;60223;34.854;-92.408;2023-02-20T05:45:12;100379.09;;;22.61;29.13
37710;BME280;60223;34.854;-92.408;2023-02-20T05:47:39;100386.88;;;22.33;29.43
37710;BME280;60223;34.854;-92.408;2023-02-20T05:50:03;100374.28;;;22.72;29.03
37710;BME280;60223;34.854;-92.408;2023-02-20T05:52:28;100364.94;;;22.73;28.96
37710;BME280;60223;34.854;-92.408;2023-02-20T05:54:54;100361.13;;;22.35;29.37
37710;BME280;60223;34.854;-92.408;2023-02-20T05:57:20;100372.49;;;22.60;29.10
37710;BME280;60223;34.854;-92.408;2023-02-20T05:59:45;100366.07;;;22.71;28.94
37710;BME280;60223;34.854;-92.408;2023-02-20T06:02:11;100368.05;;;22.78;28.87
37710;BME280;60223;34.854;-92.408;2023-02-20T06:04:36;100381.67;;;22.83;28.78
37710;BME280;60223;34.854;-92.408;2023-02-20T06:07:03;100373.40;;;22.74;29.10
37710;BME280;60223;34.854;-92.408;2023-02-20T06:09:28;100366.41;;;22.63;28.97
37710;BME280;60223;34.854;-92.408;2023-02-20T06:11:55;100356.47;;;22.45;29.12
37710;BME280;60223;34.854;-92.408;2023-02-20T06:14:23;100354.58;;;22.96;28.83
37710;BME280;60223;34.854;-92.408;2023-02-20T06:16:43;100354.30;;;22.79;28.73
37710;BME280;60223;34.854;-92.408;2023-02-20T06:19:11;100346.55;;;22.43;29.05
37710;BME280;60223;34.854;-92.408;2023-02-20T06:21:36;100344.85;;;22.54;28.95
37710;BME280;60223;34.854;-92.408;2023-02-20T06:24:02;100338.35;;;22.27;29.18
37710;BME280;60223;34.854;-92.408;2023-02-20T06:26:28;100328.78;;;22.55;28.89
37710;BME280;60223;34.854;-92.408;2023-02-20T06:28:50;100326.66;;;22.52;28.93
37710;BME280;60223;34.854;-92.408;2023-02-20T06:31:24;100309.57;;;22.73;28.70
37710;BME280;60223;34.854;-92.408;2023-02-20T06:33:45;100292.49;;;22.49;28.91
37710;BME280;60223;34.854;-92.408;2023-02-20T06:36:19;100292.04;;;22.50;28.88
37710;BME280;60223;34.854;-92.408;2023-02-20T06:38:38;100299.25;;;22.77;28.61
37710;BME280;60223;34.854;-92.408;2023-02-20T06:41:02;100290.84;;;22.10;29.26
37710;BME280;60223;34.854;-92.408;2023-02-20T06:43:27;100291.02;;;22.41;28.94
37710;BME280;60223;34.854;-92.408;2023-02-20T06:45:53;100285.50;;;22.84;28.74
37710;BME280;60223;34.854;-92.408;2023-02-20T06:48:18;100283.09;;;22.86;28.92
37710;BME280;60223;34.854;-92.408;2023-02-20T06:50:45;100279.22;;;21.95;29.33
37710;BME280;60223;34.854;-92.408;2023-02-20T06:53:11;100274.53;;;22.00;29.24
37710;BME280;60223;34.854;-92.408;2023-02-20T06:55:36;100297.08;;;22.22;29.02
37710;BME280;60223;34.854;-92.408;2023-02-20T06:58:02;100295.12;;;22.49;28.77
37710;BME280;60223;34.854;-92.408;2023-02-20T07:00:28;100283.45;;;22.06;29.14
37710;BME280;60223;34.854;-92.408;2023-02-20T07:02:53;100286.48;;;22.08;29.14
37710;BME280;60223;34.854;-92.408;2023-02-20T07:05:18;100278.61;;;22.26;28.95
37710;BME280;60223;34.854;-92.408;2023-02-20T07:07:43;100276.08;;;22.16;29.03
37710;BME280;60223;34.854;-92.408;2023-02-20T07:10:07;100267.22;;;22.79;28.40
37710;BME280;60223;34.854;-92.408;2023-02-20T07:12:34;100257.95;;;21.94;29.21
37710;BME280;60223;34.854;-92.408;2023-02-20T07:15:00;100246.83;;;21.63;29.49
37710;BME280;60223;34.854;-92.408;2023-02-20T07:17:26;100255.79;;;22.33;29.02
37710;BME280;60223;34.854;-92.408;2023-02-20T07:19:51;100249.55;;;22.36;28.96
37710;BME280;60223;34.854;-92.408;2023-02-20T07:22:18;100249.31;;;22.08;28.99
37710;BME280;60223;34.854;-92.408;2023-02-20T07:24:43;100255.30;;;22.22;28.85
37710;BME280;60223;34.854;-92.408;2023-02-20T07:27:09;100263.94;;;22.08;28.98
37710;BME280;60223;34.854;-92.408;2023-02-20T07:29:32;100254.48;;;22.03;29.03
37710;BME280;60223;34.854;-92.408;2023-02-20T07:32:01;100271.56;;;21.83;29.19
37710;BME280;60223;34.854;-92.408;2023-02-20T07:34:25;100268.49;;;22.33;29.19
37710;BME280;60223;34.854;-92.408;2023-02-20T07:36:52;100235.22;;;21.65;29.34
37710;BME280;60223;34.854;-92.408;2023-02-20T07:39:17;100231.84;;;21.76;29.26
37710;BME280;60223;34.854;-92.408;2023-02-20T07:41:44;100249.91;;;22.76;28.73
37710;BME280;60223;34.854;-92.408;2023-02-20T07:44:09;100251.82;;;22.15;29.08
37710;BME280;60223;34.854;-92.408;2023-02-20T07:46:35;100235.21;;;21.86;29.33
37710;BME280;60223;34.854;-92.408;2023-02-20T07:49:01;100237.15;;;22.00;28.94
37710;BME280;60223;34.854;-92.408;2023-02-20T07:51:25;100223.47;;;22.16;29.06
37710;BME280;60223;34.854;-92.408;2023-02-20T07:53:52;100232.98;;;22.08;28.88
37710;BME280;60223;34.854;-92.408;2023-02-20T07:56:17;100235.13;;;22.45;28.74
37710;BME280;60223;34.854;-92.408;2023-02-20T07:58:43;100222.56;;;22.08;29.05
37710;BME280;60223;34.854;-92.408;2023-02-20T08:01:09;100231.47;;;21.63;29.27
37710;BME280;60223;34.854;-92.408;2023-02-20T08:03:35;100232.48;;;21.68;29.20
37710;BME280;60223;34.854;-92.408;2023-02-20T08:06:00;100249.17;;;22.44;28.69
37710;BME280;60223;34.854;-92.408;2023-02-20T08:08:26;100256.52;;;22.23;28.88
37710;BME280;60223;34.854;-92.408;2023-02-20T08:10:52;100240.05;;;21.98;29.37
37710;BME280;60223;34.854;-92.408;2023-02-20T08:13:17;100220.56;;;21.51;29.37
37710;BME280;60223;34.854;-92.408;2023-02-20T08:15:43;100223.23;;;21.72;29.14
37710;BME280;60223;34.854;-92.408;2023-02-20T08:18:09;100233.82;;;21.44;29.63
37710;BME280;60223;34.854;-92.408;2023-02-20T08:20:35;100231.90;;;21.50;29.34
37710;BME280;60223;34.854;-92.408;2023-02-20T08:25:26;100220.04;;;21.57;29.45
37710;BME280;60223;34.854;-92.408;2023-02-20T08:27:51;100213.05;;;22.12;29.13
37710;BME280;60223;34.854;-92.408;2023-02-20T08:30:20;100211.97;;;22.30;29.17
37710;BME280;60223;34.854;-92.408;2023-02-20T08:32:43;100199.83;;;22.05;29.18
37710;BME280;60223;34.854;-92.408;2023-02-20T08:35:07;100195.23;;;21.79;28.94
37710;BME280;60223;34.854;-92.408;2023-02-20T08:37:35;100184.13;;;21.70;29.26
37710;BME280;60223;34.854;-92.408;2023-02-20T08:39:59;100171.14;;;21.32;29.39
37710;BME280;60223;34.854;-92.408;2023-02-20T08:42:26;100176.43;;;21.99;28.96
37710;BME280;60223;34.854;-92.408;2023-02-20T08:44:51;100165.74;;;22.14;28.79
37710;BME280;60223;34.854;-92.408;2023-02-20T08:47:18;100160.15;;;21.75;29.17
37710;BME280;60223;34.854;-92.408;2023-02-20T08:49:45;100153.70;;;21.88;29.04
37710;BME280;60223;34.854;-92.408;2023-02-20T08:52:07;100137.72;;;21.82;29.09
37710;BME280;60223;34.854;-92.408;2023-02-20T08:54:33;100135.44;;;22.25;28.88
37710;BME280;60223;34.854;-92.408;2023-02-20T08:57:00;100125.80;;;21.91;29.19
37710;BME280;60223;34.854;-92.408;2023-02-20T08:59:25;100121.81;;;21.77;29.10
37710;BME280;60223;34.854;-92.408;2023-02-20T09:01:52;100120.40;;;21.98;29.10
37710;BME280;60223;34.854;-92.408;2023-02-20T09:04:17;100114.63;;;21.85;29.14
37710;BME280;60223;34.854;-92.408;2023-02-20T09:06:40;100124.34;;;21.80;28.95
37710;BME280;60223;34.854;-92.408;2023-02-20T09:09:07;100122.25;;;21.94;28.81
37710;BME280;60223;34.854;-92.408;2023-02-20T09:11:34;100097.76;;;22.07;28.90
37710;BME280;60223;34.854;-92.408;2023-02-20T09:14:00;100098.26;;;21.77;28.94
37710;BME280;60223;34.854;-92.408;2023-02-20T09:16:25;100088.53;;;21.88;29.08
37710;BME280;60223;34.854;-92.408;2023-02-20T09:18:52;100078.27;;;21.53;29.15
37710;BME280;60223;34.854;-92.408;2023-02-20T09:21:20;100068.00;;;21.87;29.05
37710;BME280;60223;34.854;-92.408;2023-02-20T09:23:43;100072.60;;;21.98;28.91
37710;BME280;60223;34.854;-92.408;2023-02-20T09:26:08;100067.17;;;21.68;29.21
37710;BME280;60223;34.854;-92.408;2023-02-20T09:28:35;100057.55;;;21.98;28.91
37710;BME280;60223;34.854;-92.408;2023-02-20T09:31:00;100048.46;;;21.77;29.11
37710;BME280;60223;34.854;-92.408;2023-02-20T09:33:25;100035.03;;;21.45;29.41
37710;BME280;60223;34.854;-92.408;2023-02-20T09:35:51;100023.75;;;21.72;29.13
37710;BME280;60223;34.854;-92.408;2023-02-20T09:38:17;100020.57;;;21.89;28.95
37710;BME280;60223;34.854;-92.408;2023-02-20T09:40:43;100014.28;;;21.79;29.04
37710;BME280;60223;34.854;-92.408;2023-02-20T09:43:16;100008.58;;;21.83;28.95
37710;BME280;60223;34.854;-92.408;2023-02-20T09:45:35;100000.94;;;21.90;28.68
37710;BME280;60223;34.854;-92.408;2023-02-20T09:48:12;99994.74;;;21.98;28.79
37710;BME280;60223;34.854;-92.408;2023-02-20T09:50:32;99979.57;;;21.53;29.25
37710;BME280;60223;34.854;-92.408;2023-02-20T09:52:57;99987.25;;;21.67;29.06
37710;BME280;60223;34.854;-92.408;2023-02-20T09:55:22;99976.24;;;21.94;28.80
37710;BME280;60223;34.854;-92.408;2023-02-20T09:57:42;99979.07;;;21.93;28.79
37710;BME280;60223;34.854;-92.408;2023-02-20T10:00:07;99978.17;;;21.33;29.11
37710;BME280;60223;34.854;-92.408;2023-02-20T10:02:37;99979.10;;;21.80;28.90
37710;BME280;60223;34.854;-92.408;2023-02-20T10:05:02;99968.00;;;21.61;28.80
37710;BME280;60223;34.854;-92.408;2023-02-20T10:07:26;99954.59;;;22.11;28.53
37710;BME280;60223;34.854;-92.408;2023-02-20T10:09:52;99955.54;;;21.42;28.72
37710;BME280;60223;34.854;-92.408;2023-02-20T10:12:21;99961.96;;;21.37;29.02
37710;BME280;60223;34.854;-92.408;2023-02-20T10:14:53;99964.28;;;21.26;28.89
37710;BME280;60223;34.854;-92.408;2023-02-20T10:19:40;99979.21;;;21.05;29.33
37710;BME280;60223;34.854;-92.408;2023-02-20T10:22:04;99995.97;;;21.68;28.93
37710;BME280;60223;34.854;-92.408;2023-02-20T10:24:36;100004.54;;;21.70;28.91
37710;BME280;60223;34.854;-92.408;2023-02-20T10:26:56;99996.53;;;21.39;28.97
37710;BME280;60223;34.854;-92.408;2023-02-20T10:29:21;100012.40;;;21.87;28.73
37710;BME280;60223;34.854;-92.408;2023-02-20T10:31:42;100009.34;;;21.62;28.73
37710;BME280;60223;34.854;-92.408;2023-02-20T10:34:11;100025.84;;;21.58;28.75
37710;BME280;60223;34.854;-92.408;2023-02-20T10:36:39;100037.24;;;21.47;29.10
37710;BME280;60223;34.854;-92.408;2023-02-20T10:39:00;100043.27;;;21.42;29.11
37710;BME280;60223;34.854;-92.408;2023-02-20T10:41:29;100051.19;;;21.11;29.23
37710;BME280;60223;34.854;-92.408;2023-02-20T10:43:59;100048.49;;;20.91;29.17
37710;BME280;60223;34.854;-92.408;2023-02-20T10:46:24;100061.17;;;21.30;29.00
37710;BME280;60223;34.854;-92.408;2023-02-20T10:48:44;100072.37;;;21.28;29.00
37710;BME280;60223;34.854;-92.408;2023-02-20T10:51:12;100061.84;;;21.08;29.19
37710;BME280;60223;34.854;-92.408;2023-02-20T10:53:39;100058.41;;;21.65;28.84
37710;BME280;60223;34.854;-92.408;2023-02-20T10:56:05;100052.46;;;21.89;28.59
37710;BME280;60223;34.854;-92.408;2023-02-20T10:58:30;100067.66;;;21.92;28.54
37710;BME280;60223;34.854;-92.408;2023-02-20T11:00:54;100069.88;;;21.84;28.65
37710;BME280;60223;34.854;-92.408;2023-02-20T11:03:22;100068.36;;;21.35;29.11
37710;BME280;60223;34.854;-92.408;2023-02-20T11:05:48;100060.82;;;20.76;29.44
37710;BME280;60223;34.854;-92.408;2023-02-20T11:08:07;100056.68;;;21.59;28.85
37710;BME280;60223;34.854;-92.408;2023-02-20T11:10:35;100054.67;;;21.20;28.99
37710;BME280;60223;34.854;-92.408;2023-02-20T11:13:01;100052.52;;;21.43;28.99
37710;BME280;60223;34.854;-92.408;2023-02-20T11:15:27;100056.76;;;21.08;29.35
37710;BME280;60223;34.854;-92.408;2023-02-20T11:17:54;100057.79;;;21.48;29.44
37710;BME280;60223;34.854;-92.408;2023-02-20T11:22:45;100084.15;;;21.51;28.87
37710;BME280;60223;34.854;-92.408;2023-02-20T11:25:20;100092.74;;;21.54;28.87
37710;BME280;60223;34.854;-92.408;2023-02-20T11:27:35;100084.14;;;21.51;29.16
37710;BME280;60223;34.854;-92.408;2023-02-20T11:30:15;100081.90;;;20.94;29.19
37710;BME280;60223;34.854;-92.408;2023-02-20T11:37:18;100079.30;;;21.27;29.10
37710;BME280;60223;34.854;-92.408;2023-02-20T11:39:48;100082.44;;;21.47;28.92
37710;BME280;60223;34.854;-92.408;2023-02-20T11:42:10;100072.76;;;22.32;28.07
37710;BME280;60223;34.854;-92.408;2023-02-20T11:44:35;100067.90;;;22.52;28.01
37710;BME280;60223;34.854;-92.408;2023-02-20T11:47:10;100053.99;;;23.24;27.49
37710;BME280;60223;34.854;-92.408;2023-02-20T11:49:29;100058.69;;;23.18;27.41
37710;BME280;60223;34.854;-92.408;2023-02-20T11:51:51;100064.67;;;23.11;27.55
37710;BME280;60223;34.854;-92.408;2023-02-20T11:54:16;100067.49;;;23.08;27.63
37710;BME280;60223;34.854;-92.408;2023-02-20T11:56:53;100061.19;;;22.97;27.59
37710;BME280;60223;34.854;-92.408;2023-02-20T12:01:36;100060.29;;;23.42;27.33
37710;BME280;60223;34.854;-92.408;2023-02-20T12:04:00;100065.63;;;23.53;27.43
37710;BME280;60223;34.854;-92.408;2023-02-20T12:06:38;100050.92;;;23.67;27.42
37710;BME280;60223;34.854;-92.408;2023-02-20T12:08:55;100035.38;;;24.29;27.31
37710;BME280;60223;34.854;-92.408;2023-02-20T12:11:20;100045.91;;;23.93;27.28
37710;BME280;60223;34.854;-92.408;2023-02-20T12:13:47;100052.00;;;24.10;27.17
37710;BME280;60223;34.854;-92.408;2023-02-20T12:16:22;100030.01;;;23.77;27.40
37710;BME280;60223;34.854;-92.408;2023-02-20T12:18:44;100012.10;;;23.94;27.52
37710;BME280;60223;34.854;-92.408;2023-02-20T12:21:08;100007.49;;;24.14;27.41
37710;BME280;60223;34.854;-92.408;2023-02-20T12:23:32;99998.92;;;24.14;27.46
37710;BME280;60223;34.854;-92.408;2023-02-20T12:26:00;99996.56;;;24.05;27.38
37710;BME280;60223;34.854;-92.408;2023-02-20T12:28:21;100004.79;;;24.06;27.18
37710;BME280;60223;34.854;-92.408;2023-02-20T12:30:56;100003.23;;;24.26;27.22
37710;BME280;60223;34.854;-92.408;2023-02-20T12:33:21;100014.23;;;24.40;27.14
37710;BME280;60223;34.854;-92.408;2023-02-20T12:35:49;100019.69;;;24.41;27.43
37710;BME280;60223;34.854;-92.408;2023-02-20T12:38:14;100021.23;;;23.82;27.59
37710;BME280;60223;34.854;-92.408;2023-02-20T12:40:38;100011.52;;;24.13;27.35
37710;BME280;60223;34.854;-92.408;2023-02-20T12:42:59;99995.66;;;24.11;27.60
37710;BME280;60223;34.854;-92.408;2023-02-20T12:45:22;99995.57;;;24.38;27.34
37710;BME280;60223;34.854;-92.408;2023-02-20T12:47:45;99986.52;;;24.53;27.18
37710;BME280;60223;34.854;-92.408;2023-02-20T12:50:19;99980.21;;;24.65;26.83
37710;BME280;60223;34.854;-92.408;2023-02-20T12:52:48;100004.32;;;24.83;26.92
37710;BME280;60223;34.854;-92.408;2023-02-20T12:55:05;100006.41;;;25.09;26.94
37710;BME280;60223;34.854;-92.408;2023-02-20T12:57:37;100011.34;;;24.19;27.37
37710;BME280;60223;34.854;-92.408;2023-02-20T12:59:58;100016.78;;;24.24;27.30
37710;BME280;60223;34.854;-92.408;2023-02-20T13:02:23;100008.19;;;24.49;27.12
37710;BME280;60223;34.854;-92.408;2023-02-20T13:04:49;100008.88;;;24.35;27.22